createdAt,value
2022-10-23T00:01:44.456Z,79.64
2022-10-23T00:04:19.796Z,80.02
2022-10-23T00:06:43.152Z,80.03
2022-10-23T00:09:08.601Z,80.00
2022-10-23T00:11:32.087Z,80.18
2022-10-23T00:13:57.781Z,80.13
2022-10-23T00:16:19.764Z,80.16
2022-10-23T00:18:41.957Z,80.41
2022-10-23T00:21:05.364Z,80.40
2022-10-23T00:23:27.284Z,80.48
2022-10-23T00:25:49.360Z,80.28
2022-10-23T00:28:11.215Z,80.57
2022-10-23T00:30:33.044Z,80.50
2022-10-23T00:32:54.907Z,80.53
2022-10-23T00:35:17.010Z,80.32
2022-10-23T00:37:38.820Z,80.54
2022-10-23T00:40:00.638Z,80.41
2022-10-23T00:42:23.800Z,80.40
2022-10-23T00:44:45.533Z,80.92
2022-10-23T00:47:07.383Z,80.37
2022-10-23T00:49:29.283Z,80.53
2022-10-23T00:51:57.042Z,80.63
2022-10-23T00:54:25.806Z,80.33
2022-10-23T00:56:48.325Z,80.48
2022-10-23T00:59:11.087Z,80.47
2022-10-23T01:01:33.171Z,80.23
2022-10-23T01:03:55.894Z,80.67
2022-10-23T01:06:37.888Z,80.62
2022-10-23T01:09:18.549Z,80.64
2022-10-23T01:12:00.908Z,80.76
2022-10-23T01:14:55.079Z,80.70
2022-10-23T01:17:34.665Z,81.03
2022-10-23T01:20:18.103Z,80.71
2022-10-23T01:23:17.645Z,80.55
2022-10-23T01:26:15.631Z,80.66
2022-10-23T01:29:01.604Z,80.76
2022-10-23T01:31:37.493Z,81.08
2022-10-23T01:34:18.674Z,81.20
2022-10-23T01:36:46.913Z,81.07
2022-10-23T01:39:19.396Z,81.05
2022-10-23T01:41:55.850Z,81.08
2022-10-23T01:44:36.602Z,81.12
2022-10-23T01:46:58.949Z,81.12
2022-10-23T01:49:24.898Z,80.93
2022-10-23T01:51:57.402Z,80.84
2022-10-23T01:54:33.878Z,81.02
2022-10-23T01:56:58.794Z,81.01
2022-10-23T01:59:35.309Z,80.99
2022-10-23T02:02:00.642Z,81.16
2022-10-23T02:04:34.242Z,81.51
2022-10-23T02:06:56.751Z,81.14
2022-10-23T02:09:19.049Z,81.34
2022-10-23T02:11:57.720Z,81.32
2022-10-23T02:14:58.344Z,81.42
2022-10-23T02:18:00.262Z,81.25
2022-10-23T02:20:38.490Z,81.27
2022-10-23T02:23:15.149Z,81.31
2022-10-23T02:25:58.077Z,81.08
2022-10-23T02:28:28.952Z,81.34
2022-10-23T02:30:58.762Z,81.39
2022-10-23T02:33:21.018Z,81.51
2022-10-23T02:35:43.371Z,81.69
2022-10-23T02:38:42.745Z,81.32
2022-10-23T02:41:25.145Z,81.29
2022-10-23T02:44:32.107Z,81.47
2022-10-23T02:47:13.118Z,81.36
2022-10-23T02:49:53.075Z,81.53
2022-10-23T02:52:42.703Z,81.72
2022-10-23T02:55:24.982Z,81.70
2022-10-23T02:58:00.196Z,82.04
2022-10-23T03:00:23.535Z,81.80
2022-10-23T03:02:58.782Z,82.37
2022-10-23T03:05:31.628Z,82.62
2022-10-23T03:07:54.070Z,82.63
2022-10-23T03:10:16.291Z,82.74
2022-10-23T03:12:38.691Z,82.65
2022-10-23T03:15:01.300Z,82.84
2022-10-23T03:17:23.278Z,82.61
2022-10-23T03:19:50.140Z,82.69
2022-10-23T03:22:12.009Z,82.87
2022-10-23T03:24:33.811Z,83.07
2022-10-23T03:26:55.681Z,83.08
2022-10-23T03:29:25.037Z,83.03
2022-10-23T03:31:46.897Z,83.12
2022-10-23T03:34:11.312Z,83.08
2022-10-23T03:36:35.631Z,83.44
2022-10-23T03:39:00.102Z,83.47
2022-10-23T03:41:22.141Z,83.42
2022-10-23T03:43:43.983Z,83.42
2022-10-23T03:46:09.327Z,83.64
2022-10-23T03:48:32.656Z,83.67
2022-10-23T03:50:54.529Z,83.38
2022-10-23T03:53:16.295Z,83.44
2022-10-23T03:55:38.063Z,83.62
2022-10-23T03:57:59.839Z,83.73
2022-10-23T04:00:22.742Z,84.00
2022-10-23T04:02:44.902Z,84.15
2022-10-23T04:05:07.607Z,84.22
2022-10-23T04:07:29.371Z,84.46
2022-10-23T04:09:52.037Z,84.23
2022-10-23T04:12:13.894Z,84.31
2022-10-23T04:14:35.752Z,84.40
2022-10-23T04:16:58.252Z,84.36
2022-10-23T04:19:22.172Z,84.07
2022-10-23T04:21:45.342Z,84.29
2022-10-23T04:24:07.698Z,84.24
2022-10-23T04:26:29.442Z,84.39
2022-10-23T04:28:51.304Z,84.59
2022-10-23T04:31:13.323Z,84.71
2022-10-23T04:33:37.286Z,84.52
2022-10-23T04:35:59.115Z,84.81
2022-10-23T04:38:20.939Z,85.01
2022-10-23T04:40:43.737Z,84.71
2022-10-23T04:43:05.631Z,84.92
2022-10-23T04:45:31.866Z,84.92
2022-10-23T04:47:53.621Z,84.77
2022-10-23T04:50:16.007Z,84.95
2022-10-23T04:52:57.853Z,84.78
2022-10-23T04:55:38.202Z,84.92
2022-10-23T04:58:09.737Z,84.91
2022-10-23T05:00:32.277Z,84.88
2022-10-23T05:02:54.856Z,84.96
2022-10-23T05:05:17.982Z,85.07
2022-10-23T05:07:59.572Z,85.01
2022-10-23T05:10:38.513Z,85.21
2022-10-23T05:13:05.946Z,85.35
2022-10-23T05:15:28.242Z,85.62
2022-10-23T05:17:58.686Z,85.84
2022-10-23T05:20:26.942Z,85.67
2022-10-23T05:22:52.129Z,85.82
2022-10-23T05:25:17.749Z,86.17
2022-10-23T05:27:45.367Z,86.08
2022-10-23T05:30:10.602Z,86.20
2022-10-23T05:32:34.551Z,86.49
2022-10-23T05:34:58.292Z,86.46
2022-10-23T05:37:22.928Z,87.10
2022-10-23T05:39:47.151Z,86.59
2022-10-23T05:42:11.696Z,86.58
2022-10-23T05:44:35.403Z,86.58
2022-10-23T05:47:17.465Z,86.57
2022-10-23T05:49:39.253Z,86.60
2022-10-23T05:52:17.005Z,86.61
2022-10-23T05:55:00.554Z,86.41
2022-10-23T05:57:57.741Z,86.29
2022-10-23T06:00:39.633Z,86.57
2022-10-23T06:03:21.355Z,86.71
2022-10-23T06:05:52.660Z,86.55
2022-10-23T06:08:17.571Z,86.72
2022-10-23T06:10:39.737Z,86.87
2022-10-23T06:13:03.658Z,86.77
2022-10-23T06:15:26.198Z,86.47
2022-10-23T06:18:04.857Z,86.75
2022-10-23T06:20:29.910Z,86.34
2022-10-23T06:23:05.963Z,86.24
2022-10-23T06:25:54.615Z,86.29
2022-10-23T06:28:21.253Z,86.51
2022-10-23T06:30:43.656Z,86.31
2022-10-23T06:33:06.546Z,86.62
2022-10-23T06:35:28.726Z,86.55
2022-10-23T06:37:50.474Z,86.46
2022-10-23T06:40:21.634Z,86.31
2022-10-23T06:42:56.501Z,86.31
2022-10-23T06:45:53.762Z,86.31
2022-10-23T06:48:48.415Z,86.26
2022-10-23T06:51:18.041Z,86.35
2022-10-23T06:53:40.564Z,86.09
2022-10-23T06:56:29.304Z,86.12
2022-10-23T06:58:51.891Z,86.14
2022-10-23T07:01:16.533Z,86.33
2022-10-23T07:03:40.515Z,86.31
2022-10-23T07:06:07.475Z,86.24
2022-10-23T07:08:30.825Z,86.41
2022-10-23T07:10:53.084Z,86.61
2022-10-23T07:13:14.996Z,86.63
2022-10-23T07:16:16.584Z,86.81
2022-10-23T07:18:38.477Z,86.62
2022-10-23T07:21:35.941Z,86.81
2022-10-23T07:24:18.200Z,86.87
2022-10-23T07:26:41.458Z,86.85
2022-10-23T07:29:03.781Z,86.95
2022-10-23T07:31:28.374Z,86.82
2022-10-23T07:34:11.171Z,86.79
2022-10-23T07:36:33.243Z,86.69
2022-10-23T07:38:55.183Z,86.74
2022-10-23T07:41:17.525Z,86.54
2022-10-23T07:43:39.782Z,86.43
2022-10-23T07:46:01.970Z,86.75
2022-10-23T07:48:31.867Z,86.62
2022-10-23T07:51:00.981Z,86.83
2022-10-23T07:53:25.644Z,86.77
2022-10-23T07:56:00.116Z,86.71
2022-10-23T07:58:34.307Z,86.85
2022-10-23T08:01:20.813Z,86.94
2022-10-23T08:03:42.597Z,86.57
2022-10-23T08:06:04.567Z,86.42
2022-10-23T08:08:27.485Z,86.48
2022-10-23T08:10:55.765Z,86.35
2022-10-23T08:13:23.951Z,86.34
2022-10-23T08:15:53.137Z,86.29
2022-10-23T08:18:33.898Z,85.95
2022-10-23T08:21:02.701Z,86.15
2022-10-23T08:23:24.607Z,86.15
2022-10-23T08:25:47.521Z,85.79
2022-10-23T08:28:12.063Z,85.86
2022-10-23T08:30:45.032Z,85.63
2022-10-23T08:33:07.931Z,85.43
2022-10-23T08:35:29.828Z,85.40
2022-10-23T08:37:52.457Z,85.36
2022-10-23T08:40:18.149Z,85.16
2022-10-23T08:43:08.519Z,85.05
2022-10-23T08:46:04.142Z,84.81
2022-10-23T08:48:56.864Z,84.65
2022-10-23T08:51:44.669Z,84.43
2022-10-23T08:54:33.184Z,84.25
2022-10-23T08:57:12.878Z,83.80
2022-10-23T08:59:47.815Z,83.79
2022-10-23T09:02:24.507Z,83.68
2022-10-23T09:04:50.097Z,83.50
2022-10-23T09:07:39.598Z,82.97
2022-10-23T09:10:38.120Z,83.05
2022-10-23T09:13:28.820Z,83.02
2022-10-23T09:16:26.713Z,82.89
2022-10-23T09:18:49.959Z,82.61
2022-10-23T09:21:11.839Z,82.52
2022-10-23T09:23:33.578Z,82.28
2022-10-23T09:25:56.959Z,82.40
2022-10-23T09:28:27.400Z,82.16
2022-10-23T09:30:50.791Z,82.11
2022-10-23T09:33:34.683Z,81.97
2022-10-23T09:36:19.670Z,81.85
2022-10-23T09:38:47.601Z,81.76
2022-10-23T09:41:26.320Z,81.87
2022-10-23T09:44:22.541Z,81.57
2022-10-23T09:49:23.547Z,81.11
2022-10-23T09:51:54.622Z,80.97
2022-10-23T09:54:17.205Z,80.76
2022-10-23T09:59:15.736Z,80.34
2022-10-23T10:01:55.613Z,79.93
2022-10-23T10:04:42.072Z,79.97
2022-10-23T10:07:19.337Z,79.88
2022-10-23T10:09:41.109Z,79.67
2022-10-23T10:12:38.420Z,79.54
2022-10-23T10:15:23.767Z,79.43
2022-10-23T10:18:09.466Z,79.43
2022-10-23T10:21:00.682Z,79.49
2022-10-23T10:24:00.623Z,79.14
2022-10-23T10:26:46.499Z,79.18
2022-10-23T10:29:25.663Z,79.25
2022-10-23T10:32:25.307Z,79.06
2022-10-23T10:35:10.234Z,78.79
2022-10-23T10:38:12.685Z,78.64
2022-10-23T10:40:42.120Z,78.65
2022-10-23T10:43:38.797Z,78.48
2022-10-23T10:46:33.798Z,78.30
2022-10-23T10:49:16.003Z,78.34
2022-10-23T10:52:25.920Z,77.89
2022-10-23T10:55:05.468Z,77.98
2022-10-23T10:57:41.862Z,77.94
2022-10-23T11:00:20.882Z,78.12
2022-10-23T11:03:02.750Z,78.02
2022-10-23T11:05:43.375Z,77.84
2022-10-23T11:08:28.349Z,77.74
2022-10-23T11:10:57.933Z,77.48
2022-10-23T11:13:29.540Z,77.41
2022-10-23T11:15:59.158Z,77.23
2022-10-23T11:18:29.604Z,76.86
2022-10-23T11:21:17.559Z,76.66
2022-10-23T11:24:11.930Z,76.27
2022-10-23T11:27:02.018Z,75.89
2022-10-23T11:30:04.394Z,75.65
2022-10-23T11:33:35.581Z,75.34
2022-10-23T11:36:48.984Z,75.03
2022-10-23T11:39:21.210Z,74.60
2022-10-23T11:42:15.546Z,74.02
2022-10-23T11:44:49.345Z,73.71
2022-10-23T11:47:39.757Z,73.68
2022-10-23T11:50:15.142Z,73.47
2022-10-23T11:53:17.683Z,73.37
2022-10-23T11:55:39.587Z,73.18
2022-10-23T11:58:07.527Z,72.20
2022-10-23T12:00:31.563Z,71.88
2022-10-23T12:02:59.034Z,72.08
2022-10-23T12:05:40.479Z,71.43
2022-10-23T12:08:07.584Z,70.94
2022-10-23T12:10:52.925Z,71.01
2022-10-23T12:13:36.454Z,71.16
2022-10-23T12:16:00.887Z,70.84
2022-10-23T12:18:23.039Z,71.09
2022-10-23T12:21:02.167Z,71.00
2022-10-23T12:23:48.282Z,71.07
2022-10-23T12:26:46.005Z,70.71
2022-10-23T12:29:32.132Z,70.79
2022-10-23T12:32:09.100Z,70.31
2022-10-23T12:35:08.318Z,69.61
2022-10-23T12:37:56.016Z,69.88
2022-10-23T12:40:18.183Z,70.00
2022-10-23T12:42:40.062Z,70.19
2022-10-23T12:45:17.358Z,70.10
2022-10-23T12:47:40.107Z,69.62
2022-10-23T12:50:01.886Z,69.81
2022-10-23T12:52:25.321Z,70.11
2022-10-23T12:54:50.807Z,69.95
2022-10-23T12:57:23.122Z,69.64
2022-10-23T12:59:46.089Z,69.66
2022-10-23T13:02:27.510Z,69.44
2022-10-23T13:04:53.831Z,69.70
2022-10-23T13:07:22.597Z,69.32
2022-10-23T13:09:46.767Z,69.56
2022-10-23T13:12:30.992Z,69.44
2022-10-23T13:15:20.238Z,69.58
2022-10-23T13:17:59.190Z,69.66
2022-10-23T13:20:26.421Z,69.36
2022-10-23T13:22:59.454Z,69.89
2022-10-23T13:25:33.027Z,69.54
2022-10-23T13:28:09.982Z,69.62
2022-10-23T13:30:38.178Z,69.57
2022-10-23T13:33:00.768Z,69.39
2022-10-23T13:35:24.492Z,69.82
2022-10-23T13:37:46.299Z,69.77
2022-10-23T13:40:19.993Z,70.07
2022-10-23T13:42:42.052Z,69.98
2022-10-23T13:45:09.922Z,69.58
2022-10-23T13:47:31.712Z,69.13
2022-10-23T13:49:53.580Z,69.63
2022-10-23T13:52:22.183Z,69.35
2022-10-23T13:54:43.940Z,69.44
2022-10-23T13:57:12.915Z,69.26
2022-10-23T13:59:34.705Z,69.50
2022-10-23T14:01:56.771Z,69.63
2022-10-23T14:04:19.853Z,69.29
2022-10-23T14:06:42.519Z,69.82
2022-10-23T14:09:06.802Z,69.49
2022-10-23T14:11:28.653Z,69.14
2022-10-23T14:13:52.727Z,69.08
2022-10-23T14:16:17.889Z,69.39
2022-10-23T14:18:40.373Z,69.44
2022-10-23T14:21:04.539Z,69.77
2022-10-23T14:23:26.344Z,69.92
2022-10-23T14:25:48.132Z,69.49
2022-10-23T14:28:09.984Z,69.74
2022-10-23T14:30:31.737Z,69.53
2022-10-23T14:32:53.941Z,69.44
2022-10-23T14:35:15.870Z,69.71
2022-10-23T14:37:37.900Z,69.71
2022-10-23T14:40:00.829Z,69.61
2022-10-23T14:42:23.036Z,69.37
2022-10-23T14:44:45.233Z,69.19
2022-10-23T14:47:07.176Z,69.45
2022-10-23T14:49:29.221Z,69.23
2022-10-23T14:51:51.034Z,69.16
2022-10-23T14:54:12.934Z,69.36
2022-10-23T14:56:40.001Z,69.51
2022-10-23T14:59:04.933Z,69.73
2022-10-23T15:01:26.880Z,69.98
2022-10-23T15:03:54.656Z,69.94
2022-10-23T15:06:18.348Z,69.94
2022-10-23T15:08:40.389Z,70.18
2022-10-23T15:11:06.667Z,70.17
2022-10-23T15:13:31.174Z,70.36
2022-10-23T15:16:06.921Z,70.49
2022-10-23T15:18:28.975Z,70.68
2022-10-23T15:20:53.948Z,70.60
2022-10-23T15:23:15.804Z,70.62
2022-10-23T15:25:40.555Z,70.80
2022-10-23T15:28:02.363Z,71.02
2022-10-23T15:30:24.258Z,70.98
2022-10-23T15:32:46.082Z,70.97
2022-10-23T15:35:08.448Z,70.93
2022-10-23T15:37:30.245Z,71.05
2022-10-23T15:39:52.461Z,71.21
2022-10-23T15:42:14.550Z,71.15
2022-10-23T15:44:37.020Z,71.14
2022-10-23T15:46:59.840Z,71.17
2022-10-23T15:49:21.659Z,71.21
2022-10-23T15:51:44.198Z,71.34
2022-10-23T15:54:09.450Z,71.54
2022-10-23T15:56:31.592Z,71.47
2022-10-23T15:58:53.403Z,71.79
2022-10-23T16:01:15.308Z,71.73
2022-10-23T16:03:39.304Z,71.85
2022-10-23T16:06:11.071Z,71.73
2022-10-23T16:08:33.580Z,71.80
2022-10-23T16:10:55.389Z,72.04
2022-10-23T16:13:17.377Z,72.16
2022-10-23T16:15:39.147Z,72.30
2022-10-23T16:18:00.972Z,72.50
2022-10-23T16:20:22.944Z,72.44
2022-10-23T16:22:45.128Z,72.47
2022-10-23T16:25:07.509Z,72.39
2022-10-23T16:27:29.297Z,72.64
2022-10-23T16:29:51.171Z,72.66
2022-10-23T16:32:13.083Z,72.60
2022-10-23T16:34:34.890Z,72.62
2022-10-23T16:36:56.946Z,72.63
2022-10-23T16:39:32.116Z,72.72
2022-10-23T16:42:29.272Z,72.80
2022-10-23T16:45:17.299Z,72.80
2022-10-23T16:47:39.205Z,72.72
2022-10-23T16:50:01.421Z,72.91
2022-10-23T16:52:23.927Z,72.91
2022-10-23T16:54:45.882Z,73.13
2022-10-23T16:57:07.671Z,73.03
2022-10-23T16:59:29.560Z,73.13
2022-10-23T17:01:51.557Z,73.10
2022-10-23T17:04:13.487Z,73.37
2022-10-23T17:06:36.434Z,73.42
2022-10-23T17:09:00.275Z,73.71
2022-10-23T17:11:26.227Z,74.07
2022-10-23T17:13:58.653Z,74.17
2022-10-23T17:16:34.383Z,74.04
2022-10-23T17:18:56.967Z,74.42
2022-10-23T17:21:22.225Z,74.37
2022-10-23T17:23:44.838Z,74.43
2022-10-23T17:26:15.685Z,74.64
2022-10-23T17:28:40.476Z,74.44
2022-10-23T17:31:02.276Z,74.60
2022-10-23T17:33:24.997Z,74.81
2022-10-23T17:35:46.959Z,74.73
2022-10-23T17:38:08.737Z,74.61
2022-10-23T17:40:33.929Z,75.09
2022-10-23T17:42:55.754Z,75.00
2022-10-23T17:45:17.557Z,75.02
2022-10-23T17:47:41.082Z,75.05
2022-10-23T17:50:03.277Z,75.22
2022-10-23T17:52:25.080Z,75.27
2022-10-23T17:54:52.215Z,75.21
2022-10-23T17:57:14.033Z,75.30
2022-10-23T17:59:35.818Z,75.66
2022-10-23T18:02:00.022Z,75.69
2022-10-23T18:04:22.253Z,75.82
2022-10-23T18:06:52.860Z,75.78
2022-10-23T18:09:15.398Z,75.97
2022-10-23T18:11:46.818Z,75.86
2022-10-23T18:14:10.991Z,75.74
2022-10-23T18:16:37.840Z,75.91
2022-10-23T18:19:00.957Z,75.88
2022-10-23T18:21:24.809Z,76.06
2022-10-23T18:23:46.917Z,75.95
2022-10-23T18:26:22.859Z,75.88
2022-10-23T18:28:47.698Z,75.96
2022-10-23T18:31:11.409Z,75.97
2022-10-23T18:33:33.179Z,76.04
2022-10-23T18:35:54.995Z,76.09
2022-10-23T18:38:16.798Z,75.97
2022-10-23T18:40:41.398Z,75.88
2022-10-23T18:43:09.049Z,75.90
2022-10-23T18:45:37.367Z,76.08
2022-10-23T18:47:59.658Z,76.05
2022-10-23T18:50:21.544Z,76.17
2022-10-23T18:52:43.446Z,75.93
2022-10-23T18:55:07.953Z,76.09
2022-10-23T18:57:29.810Z,76.24
2022-10-23T18:59:55.305Z,76.23
2022-10-23T19:02:20.303Z,76.30
2022-10-23T19:04:42.300Z,76.23
2022-10-23T19:07:04.419Z,76.03
2022-10-23T19:09:26.187Z,76.09
2022-10-23T19:11:48.719Z,76.07
2022-10-23T19:14:10.797Z,75.95
2022-10-23T19:16:59.566Z,75.72
2022-10-23T19:19:35.370Z,75.73
2022-10-23T19:21:58.277Z,75.71
2022-10-23T19:24:32.047Z,75.70
2022-10-23T19:26:54.911Z,75.51
2022-10-23T19:29:21.653Z,75.54
2022-10-23T19:31:48.881Z,75.37
2022-10-23T19:34:11.369Z,75.26
2022-10-23T19:36:33.185Z,75.53
2022-10-23T19:38:54.992Z,75.61
2022-10-23T19:41:18.347Z,75.04
2022-10-23T19:43:40.241Z,74.86
2022-10-23T19:46:06.338Z,75.09
2022-10-23T19:48:31.455Z,74.28
2022-10-23T19:50:53.344Z,73.77
2022-10-23T19:53:16.859Z,73.16
2022-10-23T19:55:38.754Z,72.78
2022-10-23T19:58:00.808Z,73.72
2022-10-23T20:00:22.988Z,74.27
2022-10-23T20:02:44.803Z,74.90
2022-10-23T20:05:08.639Z,75.58
2022-10-23T20:07:30.436Z,75.81
2022-10-23T20:09:52.437Z,75.88
2022-10-23T20:12:14.555Z,75.67
2022-10-23T20:14:36.374Z,76.02
2022-10-23T20:16:59.777Z,76.03
2022-10-23T20:19:21.569Z,76.08
2022-10-23T20:21:47.247Z,76.08
2022-10-23T20:24:11.359Z,76.12
2022-10-23T20:26:33.347Z,76.16
2022-10-23T20:28:56.478Z,76.10
2022-10-23T20:31:20.890Z,76.28
2022-10-23T20:33:43.443Z,76.44
2022-10-23T20:36:08.508Z,76.53
2022-10-23T20:38:30.458Z,76.80
2022-10-23T20:40:56.456Z,76.91
2022-10-23T20:43:18.342Z,77.65
2022-10-23T20:45:40.158Z,78.11
2022-10-23T20:48:01.960Z,78.50
2022-10-23T20:50:24.183Z,78.63
2022-10-23T20:52:46.093Z,79.04
2022-10-23T20:55:08.494Z,78.99
2022-10-23T20:57:30.289Z,79.28
2022-10-23T20:59:53.416Z,79.44
2022-10-23T21:02:15.277Z,79.40
2022-10-23T21:04:37.212Z,79.54
2022-10-23T21:07:15.348Z,79.57
2022-10-23T21:09:37.946Z,79.63
2022-10-23T21:12:00.088Z,79.57
2022-10-23T21:14:21.909Z,79.66
2022-10-23T21:16:46.434Z,79.74
2022-10-23T21:19:10.340Z,80.24
2022-10-23T21:21:33.243Z,80.46
2022-10-23T21:23:59.474Z,80.35
2022-10-23T21:26:24.604Z,80.28
2022-10-23T21:28:56.225Z,80.49
2022-10-23T21:31:28.980Z,80.69
2022-10-23T21:33:50.802Z,80.63
2022-10-23T21:36:19.691Z,80.62
2022-10-23T21:38:41.558Z,80.42
2022-10-23T21:41:14.187Z,80.59
2022-10-23T21:43:36.284Z,80.43
2022-10-23T21:45:58.896Z,80.56
2022-10-23T21:48:20.744Z,80.28
2022-10-23T21:50:42.517Z,80.33
2022-10-23T21:53:04.320Z,80.32
2022-10-23T21:55:30.333Z,80.03
2022-10-23T21:57:52.110Z,80.30
2022-10-23T22:00:19.620Z,80.37
2022-10-23T22:02:41.615Z,80.26
2022-10-23T22:05:03.886Z,80.40
2022-10-23T22:07:29.914Z,80.00
2022-10-23T22:09:52.166Z,80.25
2022-10-23T22:12:14.042Z,80.39
2022-10-23T22:14:37.425Z,80.43
2022-10-23T22:16:59.266Z,80.47
2022-10-23T22:19:22.725Z,80.45
2022-10-23T22:21:45.166Z,80.73
2022-10-23T22:24:07.688Z,80.40
2022-10-23T22:26:32.179Z,80.57
2022-10-23T22:29:01.097Z,80.82
2022-10-23T22:31:27.696Z,80.86
2022-10-23T22:33:50.923Z,81.09
2022-10-23T22:36:13.197Z,81.04
2022-10-23T22:38:35.108Z,80.93
2022-10-23T22:40:56.968Z,81.24
2022-10-23T22:43:18.711Z,81.15
2022-10-23T22:45:40.479Z,81.19
2022-10-23T22:48:02.419Z,81.35
2022-10-23T22:50:24.238Z,81.19
2022-10-23T22:52:46.235Z,81.39
2022-10-23T22:55:09.968Z,81.50
2022-10-23T22:57:31.727Z,81.50
2022-10-23T22:59:53.491Z,81.46
2022-10-23T23:02:15.360Z,81.65
2022-10-23T23:04:38.695Z,81.24
2022-10-23T23:07:01.054Z,81.43
2022-10-23T23:09:22.959Z,81.43
2022-10-23T23:11:51.302Z,81.02
2022-10-23T23:14:15.746Z,81.04
2022-10-23T23:16:40.095Z,80.91
2022-10-23T23:19:04.399Z,80.79
2022-10-23T23:21:27.560Z,80.46
2022-10-23T23:23:49.425Z,80.54
2022-10-23T23:26:12.136Z,80.44
2022-10-23T23:28:33.949Z,80.32
2022-10-23T23:31:09.578Z,80.25
2022-10-23T23:33:31.538Z,80.47
2022-10-23T23:35:53.304Z,80.26
2022-10-23T23:38:15.206Z,80.47
2022-10-23T23:40:37.902Z,80.47
2022-10-23T23:42:59.694Z,80.58
2022-10-23T23:45:21.458Z,80.80
2022-10-23T23:47:43.624Z,80.80
2022-10-23T23:50:08.534Z,80.81
2022-10-23T23:52:30.336Z,80.73
2022-10-23T23:54:52.123Z,80.90
2022-10-23T23:57:14.166Z,80.80
2022-10-23T23:59:38.110Z,80.74
